createdAt,value
2024-03-16T00:00:18.206Z,100.00
2024-03-16T00:02:45.347Z,100.00
2024-03-16T00:05:12.462Z,100.00
2024-03-16T00:07:39.442Z,100.00
2024-03-16T00:10:07.320Z,100.00
2024-03-16T00:12:35.480Z,100.00
2024-03-16T00:15:02.349Z,100.00
2024-03-16T00:17:29.334Z,100.00
2024-03-16T00:19:56.138Z,100.00
2024-03-16T00:22:22.932Z,100.00
2024-03-16T00:24:51.252Z,100.00
2024-03-16T00:27:18.711Z,100.00
2024-03-16T00:29:45.464Z,100.00
2024-03-16T00:32:12.303Z,100.00
2024-03-16T00:34:39.028Z,100.00
2024-03-16T00:37:06.162Z,100.00
2024-03-16T00:39:33.254Z,100.00
2024-03-16T00:42:00.095Z,100.00
2024-03-16T00:44:27.880Z,100.00
2024-03-16T00:46:54.638Z,100.00
2024-03-16T00:49:21.506Z,100.00
2024-03-16T00:51:48.325Z,100.00
2024-03-16T00:54:15.172Z,100.00
2024-03-16T00:56:43.876Z,100.00
2024-03-16T00:59:10.572Z,100.00
2024-03-16T01:01:37.525Z,100.00
2024-03-16T01:04:05.221Z,100.00
2024-03-16T01:06:32.344Z,100.00
2024-03-16T01:08:59.880Z,100.00
2024-03-16T01:11:26.778Z,100.00
2024-03-16T01:13:54.065Z,100.00
2024-03-16T01:16:20.882Z,100.00
2024-03-16T01:18:47.587Z,100.00
2024-03-16T01:21:15.498Z,100.00
2024-03-16T01:23:42.249Z,100.00
2024-03-16T01:26:10.169Z,100.00
2024-03-16T01:28:36.877Z,100.00
2024-03-16T01:31:04.372Z,100.00
2024-03-16T01:33:31.298Z,100.00
2024-03-16T01:35:58.405Z,100.00
2024-03-16T01:38:25.253Z,100.00
2024-03-16T01:40:52.028Z,100.00
2024-03-16T01:43:19.044Z,100.00
2024-03-16T01:45:46.171Z,100.00
2024-03-16T01:48:13.245Z,100.00
2024-03-16T01:50:41.452Z,100.00
2024-03-16T01:53:10.141Z,100.00
2024-03-16T01:55:36.970Z,100.00
2024-03-16T01:58:05.041Z,100.00
2024-03-16T02:00:32.483Z,100.00
2024-03-16T02:03:00.414Z,100.00
2024-03-16T02:05:27.326Z,100.00
2024-03-16T02:07:54.581Z,100.00
2024-03-16T02:10:22.191Z,100.00
2024-03-16T02:12:49.582Z,100.00
2024-03-16T02:15:16.707Z,100.00
2024-03-16T02:17:46.491Z,100.00
2024-03-16T02:20:16.500Z,100.00
2024-03-16T02:22:43.543Z,100.00
2024-03-16T02:25:11.479Z,100.00
2024-03-16T02:27:38.645Z,100.00
2024-03-16T02:30:10.583Z,100.00
2024-03-16T02:32:37.992Z,100.00
2024-03-16T02:35:08.505Z,100.00
2024-03-16T02:37:36.086Z,100.00
2024-03-16T02:40:06.536Z,100.00
2024-03-16T02:42:33.494Z,100.00
2024-03-16T02:45:00.528Z,100.00
2024-03-16T02:47:27.507Z,100.00
2024-03-16T02:49:54.575Z,100.00
2024-03-16T02:52:21.260Z,100.00
2024-03-16T02:54:48.449Z,100.00
2024-03-16T02:57:15.450Z,100.00
2024-03-16T02:59:42.273Z,100.00
2024-03-16T03:02:09.339Z,100.00
2024-03-16T03:04:36.073Z,100.00
2024-03-16T03:07:04.749Z,100.00
2024-03-16T03:09:33.592Z,100.00
2024-03-16T03:12:00.510Z,100.00
2024-03-16T03:14:27.402Z,100.00
2024-03-16T03:16:54.342Z,100.00
2024-03-16T03:19:21.163Z,100.00
2024-03-16T03:21:47.876Z,100.00
2024-03-16T03:24:14.738Z,100.00
2024-03-16T03:26:41.527Z,100.00
2024-03-16T03:29:08.471Z,100.00
2024-03-16T03:31:35.146Z,100.00
2024-03-16T03:34:01.835Z,100.00
2024-03-16T03:36:29.780Z,100.00
2024-03-16T03:38:56.644Z,100.00
2024-03-16T03:41:23.462Z,100.00
2024-03-16T03:44:00.202Z,100.00
2024-03-16T03:46:40.234Z,100.00
2024-03-16T03:49:15.235Z,100.00
2024-03-16T03:51:42.051Z,100.00
2024-03-16T03:54:09.170Z,100.00
2024-03-16T03:56:35.946Z,100.00
2024-03-16T03:59:02.871Z,100.00
2024-03-16T04:01:29.820Z,100.00
2024-03-16T04:03:56.745Z,100.00
2024-03-16T04:06:26.509Z,100.00
2024-03-16T04:08:53.362Z,100.00
2024-03-16T04:11:20.146Z,100.00
2024-03-16T04:13:47.140Z,100.00
2024-03-16T04:16:15.002Z,100.00
2024-03-16T04:18:42.151Z,100.00
2024-03-16T04:21:08.854Z,100.00
2024-03-16T04:23:35.601Z,100.00
2024-03-16T04:26:02.349Z,100.00
2024-03-16T04:28:29.231Z,100.00
2024-03-16T04:30:56.312Z,100.00
2024-03-16T04:33:23.244Z,100.00
2024-03-16T04:35:49.882Z,100.00
2024-03-16T04:38:18.064Z,100.00
2024-03-16T04:40:44.818Z,100.00
2024-03-16T04:43:11.858Z,100.00
2024-03-16T04:45:38.843Z,100.00
2024-03-16T04:48:05.814Z,100.00
2024-03-16T04:50:34.068Z,100.00
2024-03-16T04:53:00.856Z,100.00
2024-03-16T04:55:27.750Z,100.00
2024-03-16T04:57:54.579Z,100.00
2024-03-16T05:00:21.898Z,100.00
2024-03-16T05:02:48.857Z,100.00
2024-03-16T05:05:15.787Z,100.00
2024-03-16T05:07:42.543Z,100.00
2024-03-16T05:10:09.596Z,100.00
2024-03-16T05:12:36.760Z,100.00
2024-03-16T05:15:04.244Z,100.00
2024-03-16T05:17:32.146Z,100.00
2024-03-16T05:19:58.919Z,100.00
2024-03-16T05:22:26.123Z,100.00
2024-03-16T05:24:53.072Z,100.00
2024-03-16T05:27:19.877Z,100.00
2024-03-16T05:29:46.573Z,100.00
2024-03-16T05:32:13.515Z,100.00
2024-03-16T05:34:40.493Z,100.00
2024-03-16T05:37:07.361Z,100.00
2024-03-16T05:39:34.462Z,100.00
2024-03-16T05:42:01.288Z,100.00
2024-03-16T05:44:28.000Z,100.00
2024-03-16T05:46:54.780Z,100.00
2024-03-16T05:49:22.732Z,100.00
2024-03-16T05:51:50.558Z,100.00
2024-03-16T05:54:17.406Z,100.00
2024-03-16T05:56:44.097Z,100.00
2024-03-16T05:59:11.450Z,100.00
2024-03-16T06:01:38.301Z,100.00
2024-03-16T06:04:05.268Z,100.00
2024-03-16T06:06:32.643Z,100.00
2024-03-16T06:08:59.517Z,100.00
2024-03-16T06:11:27.254Z,100.00
2024-03-16T06:13:53.988Z,100.00
2024-03-16T06:16:22.265Z,100.00
2024-03-16T06:18:49.350Z,100.00
2024-03-16T06:21:16.189Z,100.00
2024-03-16T06:23:43.191Z,100.00
2024-03-16T06:26:17.292Z,100.00
2024-03-16T06:28:47.696Z,100.00
2024-03-16T06:31:14.554Z,100.00
2024-03-16T06:33:45.999Z,100.00
2024-03-16T06:36:12.733Z,100.00
2024-03-16T06:38:39.734Z,100.00
2024-03-16T06:41:06.564Z,100.00
2024-03-16T06:43:34.361Z,100.00
2024-03-16T06:46:06.633Z,100.00
2024-03-16T06:48:33.518Z,100.00
2024-03-16T06:51:00.497Z,100.00
2024-03-16T06:53:27.127Z,100.00
2024-03-16T06:55:55.929Z,100.00
2024-03-16T06:58:23.333Z,100.00
2024-03-16T07:00:52.163Z,99.18
2024-03-16T07:03:19.814Z,98.36
2024-03-16T07:05:46.430Z,97.71
2024-03-16T07:08:16.415Z,97.04
2024-03-16T07:10:46.653Z,96.07
2024-03-16T07:13:13.677Z,95.59
2024-03-16T07:15:40.814Z,94.99
2024-03-16T07:18:08.181Z,93.81
2024-03-16T07:20:35.464Z,92.83
2024-03-16T07:23:03.355Z,92.26
2024-03-16T07:25:30.906Z,92.13
2024-03-16T07:27:57.667Z,91.31
2024-03-16T07:30:25.909Z,89.79
2024-03-16T07:32:52.683Z,87.90
2024-03-16T07:35:19.448Z,86.64
2024-03-16T07:37:46.046Z,84.76
2024-03-16T07:40:16.003Z,83.46
2024-03-16T07:42:43.080Z,81.49
2024-03-16T07:45:10.268Z,78.60
2024-03-16T07:47:37.613Z,76.68
2024-03-16T07:50:06.380Z,73.34
2024-03-16T07:52:34.312Z,70.96
2024-03-16T07:55:01.140Z,67.34
2024-03-16T07:57:29.124Z,64.56
2024-03-16T07:59:56.030Z,61.64
2024-03-16T08:02:23.028Z,60.51
2024-03-16T08:04:49.953Z,60.19
2024-03-16T08:07:16.862Z,59.17
2024-03-16T08:09:44.186Z,57.43
2024-03-16T08:12:10.927Z,55.52
2024-03-16T08:14:38.097Z,54.62
2024-03-16T08:17:05.167Z,53.63
2024-03-16T08:19:32.393Z,52.61
2024-03-16T08:21:59.318Z,51.69
2024-03-16T08:24:27.137Z,50.17
2024-03-16T08:26:54.044Z,48.92
2024-03-16T08:29:20.898Z,48.80
2024-03-16T08:31:47.792Z,48.17
2024-03-16T08:34:14.709Z,46.83
2024-03-16T08:36:41.541Z,46.40
2024-03-16T08:39:08.817Z,45.41
2024-03-16T08:41:36.919Z,45.10
2024-03-16T08:44:05.117Z,45.33
2024-03-16T08:46:32.196Z,45.47
2024-03-16T08:48:59.172Z,45.13
2024-03-16T08:51:26.307Z,44.55
2024-03-16T08:53:53.946Z,44.55
2024-03-16T08:56:20.762Z,44.80
2024-03-16T08:58:48.981Z,45.61
2024-03-16T09:01:17.391Z,46.59
2024-03-16T09:03:44.404Z,47.62
2024-03-16T09:06:12.564Z,48.43
2024-03-16T09:08:39.490Z,49.23
2024-03-16T09:11:06.266Z,50.08
2024-03-16T09:13:34.390Z,50.83
2024-03-16T09:16:05.885Z,51.43
2024-03-16T09:18:35.819Z,51.38
2024-03-16T09:21:03.692Z,51.79
2024-03-16T09:23:30.803Z,52.15
2024-03-16T09:25:58.024Z,52.36
2024-03-16T09:28:24.924Z,53.00
2024-03-16T09:30:56.366Z,53.64
2024-03-16T09:33:24.041Z,54.12
2024-03-16T09:35:54.190Z,54.34
2024-03-16T09:38:20.921Z,54.63
2024-03-16T09:40:56.250Z,55.47
2024-03-16T09:43:23.094Z,56.55
2024-03-16T09:45:50.011Z,57.18
2024-03-16T09:48:17.600Z,57.74
2024-03-16T09:50:48.287Z,58.22
2024-03-16T09:53:23.713Z,58.63
2024-03-16T09:55:51.486Z,58.94
2024-03-16T09:58:19.003Z,59.44
2024-03-16T10:00:46.498Z,59.94
2024-03-16T10:03:16.249Z,60.28
2024-03-16T10:05:43.653Z,60.95
2024-03-16T10:08:10.570Z,61.04
2024-03-16T10:10:37.362Z,61.34
2024-03-16T10:13:09.326Z,61.63
2024-03-16T10:15:45.779Z,61.88
2024-03-16T10:18:15.977Z,62.30
2024-03-16T10:20:46.117Z,62.33
2024-03-16T10:23:16.817Z,62.19
2024-03-16T10:25:47.066Z,62.26
2024-03-16T10:28:17.048Z,62.18
2024-03-16T10:30:45.497Z,62.08
2024-03-16T10:33:13.077Z,61.98
2024-03-16T10:35:39.854Z,62.02
2024-03-16T10:38:35.347Z,61.98
2024-03-16T10:41:06.588Z,62.41
2024-03-16T10:43:53.548Z,62.36
2024-03-16T10:46:21.322Z,62.43
2024-03-16T10:48:48.255Z,62.57
2024-03-16T10:51:16.529Z,62.47
2024-03-16T10:53:43.450Z,62.62
2024-03-16T10:56:10.773Z,62.87
2024-03-16T10:58:37.993Z,63.14
2024-03-16T11:01:08.925Z,63.36
2024-03-16T11:03:39.924Z,63.45
2024-03-16T11:06:10.735Z,63.79
2024-03-16T11:08:51.154Z,64.33
2024-03-16T11:11:28.067Z,64.76
2024-03-16T11:13:59.673Z,64.95
2024-03-16T11:16:30.169Z,65.37
2024-03-16T11:19:00.922Z,65.75
2024-03-16T11:21:29.242Z,65.65
2024-03-16T11:23:59.652Z,65.69
2024-03-16T11:26:26.438Z,65.89
2024-03-16T11:29:19.269Z,66.02
2024-03-16T11:31:54.034Z,66.07
2024-03-16T11:34:22.002Z,66.18
2024-03-16T11:36:53.391Z,65.87
2024-03-16T11:39:31.306Z,65.40
2024-03-16T11:41:59.323Z,65.35
2024-03-16T11:44:26.872Z,65.45
2024-03-16T11:46:54.418Z,65.38
2024-03-16T11:49:22.088Z,65.31
2024-03-16T11:51:49.945Z,64.95
2024-03-16T11:54:16.995Z,64.98
2024-03-16T11:56:44.256Z,65.18
2024-03-16T11:59:14.334Z,65.61
2024-03-16T12:01:43.096Z,66.01
2024-03-16T12:04:10.728Z,66.57
2024-03-16T12:06:37.801Z,66.68
2024-03-16T12:09:13.767Z,66.97
2024-03-16T12:11:45.863Z,67.41
2024-03-16T12:14:14.918Z,67.87
2024-03-16T12:16:43.862Z,67.84
2024-03-16T12:19:12.034Z,67.95
2024-03-16T12:21:43.486Z,68.12
2024-03-16T12:24:15.330Z,68.60
2024-03-16T12:26:49.643Z,68.75
2024-03-16T12:29:17.858Z,69.10
2024-03-16T12:31:56.966Z,68.98
2024-03-16T12:34:29.005Z,68.93
2024-03-16T12:36:56.315Z,69.27
2024-03-16T12:39:25.684Z,69.24
2024-03-16T12:41:54.213Z,69.64
2024-03-16T12:44:23.019Z,70.04
2024-03-16T12:46:51.098Z,70.13
2024-03-16T12:49:17.885Z,70.28
2024-03-16T12:51:45.678Z,70.57
2024-03-16T12:54:12.720Z,70.88
2024-03-16T12:56:47.939Z,71.29
2024-03-16T12:59:15.037Z,71.67
2024-03-16T13:01:42.311Z,71.90
2024-03-16T13:04:09.185Z,72.16
2024-03-16T13:06:36.131Z,72.41
2024-03-16T13:09:11.235Z,72.63
2024-03-16T13:11:38.301Z,72.92
2024-03-16T13:14:05.090Z,72.98
2024-03-16T13:16:33.535Z,73.15
2024-03-16T13:19:02.182Z,73.33
2024-03-16T13:21:30.107Z,73.48
2024-03-16T13:23:56.862Z,73.64
2024-03-16T13:26:25.022Z,73.62
2024-03-16T13:28:51.835Z,73.94
2024-03-16T13:31:18.879Z,73.95
2024-03-16T13:33:45.641Z,73.99
2024-03-16T13:36:12.748Z,74.01
2024-03-16T13:38:41.286Z,74.04
2024-03-16T13:41:08.636Z,73.99
2024-03-16T13:43:37.058Z,73.97
2024-03-16T13:46:04.411Z,74.06
2024-03-16T13:48:31.774Z,74.15
2024-03-16T13:51:04.665Z,74.25
2024-03-16T13:53:36.804Z,73.95
2024-03-16T13:56:04.114Z,74.17
2024-03-16T13:58:31.051Z,74.37
2024-03-16T14:00:58.056Z,74.66
2024-03-16T14:03:26.019Z,74.71
2024-03-16T14:05:53.073Z,74.72
2024-03-16T14:08:20.755Z,74.81
2024-03-16T14:10:47.510Z,74.92
2024-03-16T14:13:15.222Z,74.98
2024-03-16T14:15:43.247Z,75.08
2024-03-16T14:18:09.976Z,75.58
2024-03-16T14:20:36.916Z,75.76
2024-03-16T14:23:04.450Z,76.17
2024-03-16T14:25:31.957Z,76.50
2024-03-16T14:27:58.694Z,76.70
2024-03-16T14:30:25.611Z,76.94
2024-03-16T14:32:52.530Z,77.13
2024-03-16T14:35:20.222Z,77.64
2024-03-16T14:37:47.478Z,78.11
2024-03-16T14:40:22.223Z,78.58
2024-03-16T14:42:49.704Z,78.91
2024-03-16T14:45:16.809Z,79.72
2024-03-16T14:47:43.791Z,80.19
2024-03-16T14:50:13.949Z,80.88
2024-03-16T14:52:43.717Z,81.58
2024-03-16T14:55:10.749Z,82.06
2024-03-16T14:57:39.239Z,82.43
2024-03-16T15:00:07.392Z,82.82
2024-03-16T15:02:37.572Z,83.31
2024-03-16T15:05:06.578Z,83.58
2024-03-16T15:07:34.251Z,83.76
2024-03-16T15:10:01.838Z,84.19
2024-03-16T15:12:28.858Z,84.34
2024-03-16T15:14:55.750Z,84.48
2024-03-16T15:17:22.560Z,84.81
2024-03-16T15:19:50.572Z,85.16
2024-03-16T15:22:17.470Z,85.06
2024-03-16T15:24:44.755Z,85.05
2024-03-16T15:27:37.955Z,84.97
2024-03-16T15:30:05.819Z,84.71
2024-03-16T15:32:33.065Z,84.63
2024-03-16T15:35:00.218Z,84.36
2024-03-16T15:37:27.368Z,83.28
2024-03-16T15:39:54.326Z,82.88
2024-03-16T15:42:21.482Z,83.02
2024-03-16T15:44:48.650Z,83.28
2024-03-16T15:47:15.462Z,83.51
2024-03-16T15:49:43.012Z,83.81
2024-03-16T15:52:16.876Z,84.14
2024-03-16T15:54:47.764Z,84.67
2024-03-16T15:57:17.160Z,85.02
2024-03-16T15:59:43.951Z,85.25
2024-03-16T16:02:11.064Z,85.71
2024-03-16T16:04:38.204Z,86.16
2024-03-16T16:07:05.033Z,86.66
2024-03-16T16:09:31.814Z,87.17
2024-03-16T16:11:58.638Z,87.67
2024-03-16T16:14:25.581Z,88.22
2024-03-16T16:16:52.418Z,88.81
2024-03-16T16:19:19.381Z,89.14
2024-03-16T16:21:46.124Z,89.43
2024-03-16T16:24:13.334Z,89.82
2024-03-16T16:26:42.160Z,89.92
2024-03-16T16:29:12.166Z,90.15
2024-03-16T16:31:39.307Z,90.30
2024-03-16T16:35:02.706Z,90.43
2024-03-16T16:37:30.109Z,90.51
2024-03-16T16:39:57.196Z,90.67
2024-03-16T16:42:29.740Z,90.81
2024-03-16T16:44:56.636Z,90.87
2024-03-16T16:47:23.520Z,90.90
2024-03-16T16:49:52.589Z,90.91
2024-03-16T16:52:21.273Z,91.03
2024-03-16T16:54:48.203Z,91.16
2024-03-16T16:57:15.113Z,91.41
2024-03-16T16:59:41.973Z,91.33
2024-03-16T17:02:08.890Z,91.36
2024-03-16T17:04:35.609Z,91.42
2024-03-16T17:07:03.270Z,91.63
2024-03-16T17:09:30.153Z,91.67
2024-03-16T17:11:56.952Z,91.81
2024-03-16T17:14:25.414Z,91.74
2024-03-16T17:16:52.796Z,92.07
2024-03-16T17:19:21.151Z,92.09
2024-03-16T17:21:49.268Z,92.38
2024-03-16T17:24:16.089Z,92.59
2024-03-16T17:26:42.942Z,92.89
2024-03-16T17:29:10.251Z,92.85
2024-03-16T17:31:37.040Z,92.95
2024-03-16T17:34:04.888Z,93.12
2024-03-16T17:36:31.865Z,93.45
2024-03-16T17:38:58.713Z,93.51
2024-03-16T17:41:26.269Z,93.53
2024-03-16T17:44:44.003Z,93.77
2024-03-16T17:47:12.137Z,93.98
2024-03-16T17:49:42.360Z,94.12
2024-03-16T17:52:09.081Z,94.32
2024-03-16T17:54:36.069Z,94.55
2024-03-16T17:57:06.381Z,94.63
2024-03-16T17:59:33.162Z,94.71
2024-03-16T18:01:59.948Z,94.86
2024-03-16T18:04:28.435Z,95.13
2024-03-16T18:06:55.513Z,95.11
2024-03-16T18:09:22.335Z,95.23
2024-03-16T18:11:49.166Z,95.28
2024-03-16T18:14:16.031Z,95.35
2024-03-16T18:16:45.238Z,95.45
2024-03-16T18:19:12.411Z,95.81
2024-03-16T18:21:39.317Z,96.08
2024-03-16T18:24:07.154Z,96.40
2024-03-16T18:26:34.022Z,96.41
2024-03-16T18:29:00.894Z,96.61
2024-03-16T18:31:27.833Z,96.73
2024-03-16T18:33:54.989Z,96.99
2024-03-16T18:36:23.135Z,97.04
2024-03-16T18:38:49.989Z,97.39
2024-03-16T18:41:18.594Z,97.50
2024-03-16T18:43:47.983Z,97.81
2024-03-16T18:46:16.201Z,98.10
2024-03-16T18:48:44.692Z,98.23
2024-03-16T18:51:11.482Z,98.58
2024-03-16T18:53:38.300Z,98.88
2024-03-16T18:56:06.305Z,99.33
2024-03-16T18:58:33.202Z,99.60
2024-03-16T19:01:04.628Z,99.96
2024-03-16T19:03:32.029Z,100.00
2024-03-16T19:06:00.475Z,100.00
2024-03-16T19:08:29.288Z,100.00
2024-03-16T19:10:59.194Z,100.00
2024-03-16T19:13:26.936Z,100.00
2024-03-16T19:15:55.721Z,100.00
2024-03-16T19:18:23.319Z,100.00
2024-03-16T19:20:50.674Z,100.00
2024-03-16T19:23:17.682Z,100.00
2024-03-16T19:25:46.368Z,100.00
2024-03-16T19:28:57.071Z,100.00
2024-03-16T19:31:23.947Z,100.00
2024-03-16T19:33:50.968Z,100.00
2024-03-16T19:36:21.464Z,100.00
2024-03-16T19:38:50.423Z,100.00
2024-03-16T19:41:17.652Z,100.00
2024-03-16T19:43:44.969Z,100.00
2024-03-16T19:46:11.915Z,100.00
2024-03-16T19:48:38.677Z,100.00
2024-03-16T19:51:06.533Z,100.00
2024-03-16T19:53:33.276Z,100.00
2024-03-16T19:56:00.189Z,100.00
2024-03-16T19:58:28.720Z,100.00
2024-03-16T20:00:58.008Z,100.00
2024-03-16T20:03:27.999Z,100.00
2024-03-16T20:05:54.842Z,100.00
2024-03-16T20:08:21.891Z,100.00
2024-03-16T20:10:49.795Z,100.00
2024-03-16T20:13:17.137Z,100.00
2024-03-16T20:15:44.054Z,100.00
2024-03-16T20:18:10.813Z,100.00
2024-03-16T20:20:40.306Z,100.00
2024-03-16T20:23:08.346Z,100.00
2024-03-16T20:25:37.989Z,100.00
2024-03-16T20:28:08.408Z,100.00
2024-03-16T20:30:35.582Z,100.00
2024-03-16T20:33:02.487Z,100.00
2024-03-16T20:35:29.334Z,100.00
2024-03-16T20:37:56.181Z,100.00
2024-03-16T20:40:23.764Z,100.00
2024-03-16T20:42:52.776Z,100.00
2024-03-16T20:45:19.868Z,100.00
2024-03-16T20:47:47.026Z,100.00
2024-03-16T20:50:13.955Z,100.00
2024-03-16T20:52:42.631Z,100.00
2024-03-16T20:55:09.654Z,100.00
2024-03-16T20:57:36.734Z,100.00
2024-03-16T21:00:09.690Z,100.00
2024-03-16T21:02:37.185Z,100.00
2024-03-16T21:05:04.716Z,100.00
2024-03-16T21:07:34.330Z,100.00
2024-03-16T21:10:05.202Z,100.00
2024-03-16T21:12:35.194Z,100.00
2024-03-16T21:15:10.143Z,100.00
2024-03-16T21:17:37.131Z,100.00
2024-03-16T21:20:05.544Z,100.00
2024-03-16T21:22:36.893Z,100.00
2024-03-16T21:25:04.659Z,100.00
2024-03-16T21:27:31.603Z,100.00
2024-03-16T21:29:58.435Z,100.00
2024-03-16T21:32:25.319Z,100.00
2024-03-16T21:34:54.263Z,100.00
2024-03-16T21:37:23.779Z,100.00
2024-03-16T21:39:50.657Z,100.00
2024-03-16T21:42:19.927Z,100.00
2024-03-16T21:44:47.126Z,100.00
2024-03-16T21:47:14.644Z,100.00
2024-03-16T21:49:41.505Z,100.00
2024-03-16T21:52:09.171Z,100.00
2024-03-16T21:54:38.395Z,100.00
2024-03-16T21:57:05.159Z,100.00
2024-03-16T21:59:32.020Z,100.00
2024-03-16T22:01:58.900Z,100.00
2024-03-16T22:04:28.278Z,100.00
2024-03-16T22:06:59.090Z,100.00
2024-03-16T22:09:25.890Z,100.00
2024-03-16T22:11:53.734Z,100.00
2024-03-16T22:14:20.525Z,100.00
2024-03-16T22:16:47.231Z,100.00
2024-03-16T22:19:14.659Z,100.00
2024-03-16T22:21:41.499Z,100.00
2024-03-16T22:24:08.766Z,100.00
2024-03-16T22:26:35.696Z,100.00
2024-03-16T22:29:02.542Z,100.00
2024-03-16T22:31:30.753Z,100.00
2024-03-16T22:33:57.604Z,100.00
2024-03-16T22:36:24.722Z,100.00
2024-03-16T22:38:51.446Z,100.00
2024-03-16T22:41:18.171Z,100.00
2024-03-16T22:43:44.798Z,100.00
2024-03-16T22:46:11.504Z,100.00
2024-03-16T22:48:38.403Z,100.00
2024-03-16T22:51:05.183Z,100.00
2024-03-16T22:53:31.825Z,100.00
2024-03-16T22:55:58.651Z,100.00
2024-03-16T22:58:25.544Z,100.00
2024-03-16T23:00:59.568Z,100.00
2024-03-16T23:03:26.639Z,100.00
2024-03-16T23:05:53.405Z,100.00
2024-03-16T23:08:20.813Z,100.00
2024-03-16T23:10:50.443Z,100.00
2024-03-16T23:13:17.344Z,100.00
2024-03-16T23:15:44.094Z,100.00
2024-03-16T23:18:10.851Z,100.00
2024-03-16T23:20:37.928Z,100.00
2024-03-16T23:23:05.915Z,100.00
2024-03-16T23:25:32.650Z,100.00
2024-03-16T23:27:59.525Z,100.00
2024-03-16T23:30:26.937Z,100.00
2024-03-16T23:32:53.559Z,100.00
2024-03-16T23:35:21.673Z,100.00
2024-03-16T23:37:49.541Z,100.00
2024-03-16T23:40:16.218Z,100.00
2024-03-16T23:42:48.074Z,100.00
2024-03-16T23:45:15.412Z,100.00
2024-03-16T23:47:42.781Z,100.00
2024-03-16T23:50:14.038Z,100.00
2024-03-16T23:52:40.779Z,100.00
2024-03-16T23:55:08.124Z,100.00
2024-03-16T23:57:34.985Z,100.00
